Time;durP1;ratioP1;P1;durP2;ratioP2;P2;SDS_P1;SDS_P2;PMS_P1;PMS_P2;Temp;Humidity;BMP_temperature;BMP_pressure;BME280_temperature;BME280_humidity;BME280_pressure;Samples;Min_cycle;Max_cycle;Signal;HPM_P1;HPM_P2
2022/04/05 00:01:40;;;;;;;8.27;3.22;;;9.50;99.90;;;;;;5036475;28;20543;-74
2022/04/05 00:04:06;;;;;;;7.60;3.10;;;9.50;99.90;;;;;;5054134;28;20099;-73
2022/04/05 00:06:31;;;;;;;8.43;4.03;;;9.50;99.90;;;;;;5054578;28;20021;-74
2022/04/05 00:08:57;;;;;;;17.88;4.05;;;9.50;99.90;;;;;;5053492;28;20021;-75
2022/04/05 00:11:22;;;;;;;16.05;3.97;;;9.50;99.90;;;;;;5054201;28;20015;-74
2022/04/05 00:13:48;;;;;;;6.70;1.63;;;9.40;99.90;;;;;;5053873;28;20093;-75
2022/04/05 00:16:14;;;;;;;3.20;0.47;;;9.40;99.90;;;;;;5054398;28;20075;-74
2022/04/05 00:18:39;;;;;;;2.97;0.30;;;9.30;99.90;;;;;;5036348;28;20043;-74
2022/04/05 00:21:06;;;;;;;2.03;0.55;;;9.10;99.90;;;;;;5054296;28;20030;-74
2022/04/05 00:23:32;;;;;;;2.15;0.10;;;9.00;99.90;;;;;;5054410;28;20021;-74
2022/04/05 00:25:57;;;;;;;0.80;0.20;;;8.90;99.90;;;;;;5057797;28;20029;-74
2022/04/05 00:28:23;;;;;;;2.95;0.10;;;8.80;99.90;;;;;;5040084;28;20071;-74
2022/04/05 00:30:49;;;;;;;0.10;0.00;;;8.70;99.90;;;;;;5040175;28;20037;-74
2022/04/05 00:33:14;;;;;;;0.77;0.10;;;8.80;99.90;;;;;;5058414;28;20021;-74
2022/04/05 00:35:40;;;;;;;2.30;0.63;;;8.60;99.90;;;;;;5058384;28;20482;-74
2022/04/05 00:38:07;;;;;;;1.60;0.00;;;8.60;99.90;;;;;;5041257;28;20021;-73
2022/04/05 00:40:33;;;;;;;0.63;0.00;;;8.50;99.90;;;;;;5058524;28;20045;-73
2022/04/05 00:43:00;;;;;;;0.70;0.00;;;8.50;99.90;;;;;;5057479;28;20036;-73
2022/04/05 00:45:25;;;;;;;2.38;0.00;;;8.40;99.90;;;;;;5058329;28;20048;-73
2022/04/05 00:47:51;;;;;;;1.08;0.00;;;8.40;99.90;;;;;;5057779;28;20052;-73
2022/04/05 00:50:22;;;;;;;2.60;0.00;;;8.30;99.90;;;;;;5038997;28;20021;-73
2022/04/05 00:52:47;;;;;;;3.85;0.00;;;8.20;99.90;;;;;;5057423;28;20474;-73
2022/04/05 00:55:15;;;;;;;1.85;0.00;;;8.20;99.90;;;;;;5039061;28;20013;-73
2022/04/05 00:57:41;;;;;;;0.10;0.00;;;8.20;99.90;;;;;;5038779;28;20018;-73
2022/04/05 01:00:09;;;;;;;4.13;0.15;;;8.20;99.90;;;;;;5056511;28;20398;-73
2022/04/05 01:02:38;;;;;;;1.25;0.10;;;8.10;99.90;;;;;;5056535;28;20495;-73
2022/04/05 01:05:06;;;;;;;2.45;0.08;;;8.10;99.90;;;;;;5056513;28;20025;-73
2022/04/05 01:07:33;;;;;;;1.75;0.00;;;8.10;99.90;;;;;;5056556;28;20032;-73
2022/04/05 01:09:59;;;;;;;1.45;0.00;;;8.10;99.90;;;;;;5056507;28;20355;-73
2022/04/05 01:12:25;;;;;;;0.50;0.10;;;8.20;99.90;;;;;;5057549;28;20024;-73
2022/04/05 01:14:52;;;;;;;1.38;0.28;;;8.10;99.90;;;;;;5056835;28;20025;-73
2022/04/05 01:17:19;;;;;;;1.55;0.00;;;8.10;99.90;;;;;;5057146;28;20021;-73
2022/04/05 01:19:47;;;;;;;2.40;0.00;;;8.10;99.90;;;;;;5038250;28;20432;-73
2022/04/05 01:22:13;;;;;;;0.30;0.00;;;8.10;99.90;;;;;;5056071;28;20021;-73
2022/04/05 01:24:39;;;;;;;2.85;0.00;;;8.10;99.90;;;;;;5055897;28;20029;-73
2022/04/05 01:27:06;;;;;;;1.80;0.00;;;8.10;99.90;;;;;;5056140;28;20021;-73
2022/04/05 01:29:32;;;;;;;3.08;0.00;;;8.10;99.90;;;;;;5055779;28;20063;-73
2022/04/05 01:32:04;;;;;;;1.77;0.00;;;8.00;99.90;;;;;;5056171;28;20071;-73
2022/04/05 01:34:31;;;;;;;0.35;0.00;;;8.10;99.90;;;;;;5037904;28;20070;-73
2022/04/05 01:37:00;;;;;;;2.03;0.22;;;8.10;99.90;;;;;;5054695;28;20017;-72
2022/04/05 01:39:31;;;;;;;0.57;0.10;;;8.10;99.90;;;;;;5055621;28;20025;-73
2022/04/05 01:42:05;;;;;;;0.22;0.00;;;8.10;99.90;;;;;;5055936;28;20029;-73
2022/04/05 01:44:33;;;;;;;2.83;0.25;;;8.10;99.90;;;;;;5056068;28;20025;-73
2022/04/05 01:47:09;;;;;;;1.15;0.10;;;8.10;99.90;;;;;;5056037;28;20025;-74
2022/04/05 01:49:35;;;;;;;2.58;0.22;;;8.10;99.90;;;;;;5055371;28;20013;-72
2022/04/05 01:52:01;;;;;;;2.08;0.77;;;8.10;99.90;;;;;;5055325;28;20044;-72
2022/04/05 01:54:26;;;;;;;1.85;0.30;;;8.10;99.90;;;;;;5055458;28;20475;-72
2022/04/05 01:56:52;;;;;;;1.98;0.30;;;8.10;99.90;;;;;;5037250;28;20013;-73
2022/04/05 01:59:20;;;;;;;0.57;0.30;;;8.10;99.90;;;;;;5055099;28;20110;-73
2022/04/05 02:01:46;;;;;;;5.60;0.33;;;8.10;99.90;;;;;;5055314;28;20489;-75
2022/04/05 02:04:13;;;;;;;1.83;0.32;;;8.10;99.90;;;;;;5055365;28;20263;-75
2022/04/05 02:06:43;;;;;;;4.35;1.33;;;8.10;99.90;;;;;;5037297;28;20025;-73
2022/04/05 02:09:10;;;;;;;2.00;0.93;;;8.10;99.90;;;;;;5054947;28;20032;-74
2022/04/05 02:11:37;;;;;;;3.33;1.05;;;8.10;99.90;;;;;;5037113;28;20021;-74
2022/04/05 02:14:03;;;;;;;3.77;1.10;;;8.10;99.90;;;;;;5054853;28;20112;-74
2022/04/05 02:16:29;;;;;;;3.55;1.00;;;8.10;99.90;;;;;;5054754;28;20065;-73
2022/04/05 02:18:54;;;;;;;2.53;0.60;;;8.10;99.90;;;;;;5036836;28;20075;-72
2022/04/05 02:21:20;;;;;;;2.75;1.00;;;8.10;99.90;;;;;;5054788;28;20024;-74
2022/04/05 02:23:46;;;;;;;2.35;0.68;;;8.10;99.90;;;;;;5054944;28;20025;-73
2022/04/05 02:26:12;;;;;;;2.88;0.93;;;8.30;99.90;;;;;;5054577;28;20083;-74
2022/04/05 02:28:37;;;;;;;2.15;0.65;;;8.10;99.90;;;;;;5038028;28;20021;-77
2022/04/05 02:31:03;;;;;;;3.75;1.10;;;8.10;99.90;;;;;;5055867;28;20021;-76
2022/04/05 02:33:29;;;;;;;3.17;0.93;;;8.10;99.90;;;;;;5038091;28;20021;-76
2022/04/05 02:35:55;;;;;;;3.67;1.02;;;9.50;99.90;;;;;;5056113;28;20028;-76
2022/04/05 02:38:21;;;;;;;2.72;0.88;;;8.20;99.90;;;;;;5056011;28;20489;-76
2022/04/05 02:40:47;;;;;;;3.05;1.15;;;8.20;99.90;;;;;;5037515;28;20079;-76
2022/04/05 02:43:15;;;;;;;4.68;1.27;;;8.10;99.90;;;;;;5056035;28;20029;-76
2022/04/05 02:45:41;;;;;;;2.53;0.75;;;8.20;99.90;;;;;;5037991;28;20434;-76
2022/04/05 02:48:06;;;;;;;2.35;1.02;;;8.10;99.90;;;;;;5055797;28;20067;-75
2022/04/05 02:50:32;;;;;;;3.35;0.80;;;8.20;99.90;;;;;;5056612;28;20021;-76
2022/04/05 02:52:58;;;;;;;1.80;0.70;;;8.10;99.90;;;;;;5055415;28;20021;-74
2022/04/05 02:55:24;;;;;;;5.85;1.27;;;8.10;99.90;;;;;;5038372;28;20063;-74
2022/04/05 02:57:52;;;;;;;7.07;2.13;;;8.20;99.90;;;;;;5055955;28;20025;-74
2022/04/05 03:00:19;;;;;;;7.40;1.50;;;8.10;99.90;;;;;;5037616;28;20363;-73
2022/04/05 03:02:44;;;;;;;6.45;1.98;;;8.10;99.90;;;;;;5055977;28;20025;-74
2022/04/05 03:05:12;;;;;;;7.70;3.20;;;8.20;99.90;;;;;;5055515;28;20056;-74
2022/04/05 03:07:37;;;;;;;4.80;2.45;;;8.10;99.90;;;;;;5055745;28;20474;-74
2022/04/05 03:10:08;;;;;;;7.53;2.92;;;8.10;99.90;;;;;;5054789;28;20142;-74
2022/04/05 03:12:36;;;;;;;6.03;2.72;;;8.10;99.90;;;;;;5055727;28;20381;-73
2022/04/05 03:15:02;;;;;;;8.30;3.38;;;8.20;99.90;;;;;;5055118;28;20104;-74
2022/04/05 03:17:28;;;;;;;10.50;3.90;;;8.20;99.90;;;;;;5055572;28;20028;-74
2022/04/05 03:19:54;;;;;;;8.82;3.75;;;8.10;99.90;;;;;;5055437;28;20029;-74
2022/04/05 03:22:20;;;;;;;8.77;3.38;;;8.10;99.90;;;;;;5037150;28;20020;-74
2022/04/05 03:24:46;;;;;;;10.65;3.75;;;8.20;99.90;;;;;;5036901;28;20115;-73
2022/04/05 03:27:11;;;;;;;7.68;3.15;;;8.10;99.90;;;;;;5055040;28;20064;-72
2022/04/05 03:29:37;;;;;;;9.43;3.55;;;8.20;99.90;;;;;;5036322;28;20025;-74
2022/04/05 03:32:03;;;;;;;7.95;3.10;;;8.10;99.90;;;;;;5036959;28;20024;-73
2022/04/05 03:34:29;;;;;;;6.85;3.28;;;8.20;99.90;;;;;;5054708;28;20462;-74
2022/04/05 03:36:55;;;;;;;7.75;3.10;;;8.20;99.90;;;;;;5054731;28;20025;-74
2022/04/05 03:39:21;;;;;;;9.82;3.60;;;8.20;99.90;;;;;;5054653;28;20044;-73
2022/04/05 03:41:47;;;;;;;10.10;3.15;;;8.20;99.90;;;;;;5036869;28;20425;-73
2022/04/05 03:44:13;;;;;;;11.95;3.55;;;8.10;99.90;;;;;;5054794;28;20055;-73
2022/04/05 03:46:38;;;;;;;7.20;3.28;;;8.20;99.90;;;;;;5055205;28;20078;-74
2022/04/05 03:49:04;;;;;;;9.40;2.83;;;8.20;99.90;;;;;;5054989;28;20025;-74
2022/04/05 03:51:30;;;;;;;6.97;2.83;;;8.20;99.90;;;;;;5054538;28;20061;-74
2022/04/05 03:53:56;;;;;;;6.50;3.17;;;8.20;99.90;;;;;;5054554;28;20075;-74
2022/04/05 03:56:23;;;;;;;8.18;3.10;;;8.20;99.90;;;;;;5036536;28;20025;-75
2022/04/05 03:58:49;;;;;;;8.73;3.20;;;8.10;99.90;;;;;;5054105;28;20048;-75
2022/04/05 04:01:15;;;;;;;11.57;3.55;;;8.20;99.90;;;;;;5058264;28;20494;-74
2022/04/05 04:03:41;;;;;;;9.10;3.70;;;8.20;99.90;;;;;;5058380;28;20025;-75
2022/04/05 04:06:06;;;;;;;9.45;2.53;;;8.20;99.90;;;;;;5040055;28;20021;-74
2022/04/05 04:08:32;;;;;;;6.93;2.75;;;8.20;99.90;;;;;;5058519;28;20044;-73
2022/04/05 04:10:58;;;;;;;7.70;3.65;;;11.00;99.90;;;;;;5058671;28;20382;-73
2022/04/05 04:13:24;;;;;;;5.95;2.28;;;8.20;99.90;;;;;;5058253;28;20021;-73
2022/04/05 04:15:50;;;;;;;9.10;3.20;;;8.20;99.90;;;;;;5058475;28;20025;-74
2022/04/05 04:18:15;;;;;;;5.78;2.92;;;8.20;99.90;;;;;;5039924;28;20099;-75
2022/04/05 04:20:44;;;;;;;8.32;2.22;;;8.20;99.90;;;;;;5058097;28;20485;-75
2022/04/05 04:23:10;;;;;;;10.15;2.55;;;8.20;99.90;;;;;;5058012;28;20032;-73
2022/04/05 04:25:40;;;;;;;5.47;2.55;;;8.20;99.90;;;;;;5059339;28;20474;-74
2022/04/05 04:28:09;;;;;;;6.03;2.15;;;8.20;99.90;;;;;;5041382;28;20112;-73
2022/04/05 04:30:37;;;;;;;10.77;2.42;;;8.20;99.90;;;;;;5058995;28;20102;-73
2022/04/05 04:33:03;;;;;;;5.25;2.47;;;8.20;99.90;;;;;;5059040;28;20017;-73
2022/04/05 04:35:29;;;;;;;8.43;3.10;;;8.30;99.90;;;;;;5059215;28;20056;-74
2022/04/05 04:37:55;;;;;;;8.35;3.10;;;8.30;99.90;;;;;;5059576;28;20395;-74
2022/04/05 04:40:21;;;;;;;7.35;2.72;;;8.30;99.90;;;;;;5040436;28;20029;-74
2022/04/05 04:42:47;;;;;;;9.00;2.60;;;8.30;99.90;;;;;;5040505;28;20063;-74
2022/04/05 04:45:13;;;;;;;6.60;3.33;;;8.30;99.90;;;;;;5057545;28;20044;-74
2022/04/05 04:47:39;;;;;;;10.50;3.25;;;8.40;99.90;;;;;;5057115;28;20029;-75
2022/04/05 04:50:10;;;;;;;8.85;3.00;;;8.40;99.90;;;;;;5039060;28;20478;-75
2022/04/05 04:52:36;;;;;;;6.00;3.03;;;8.40;99.90;;;;;;5039002;28;20021;-75
2022/04/05 04:55:02;;;;;;;6.63;3.17;;;8.50;99.90;;;;;;5057074;28;20485;-74
2022/04/05 04:57:27;;;;;;;5.10;2.85;;;8.50;99.90;;;;;;5039473;28;20067;-74
2022/04/05 04:59:53;;;;;;;5.18;2.95;;;8.50;99.90;;;;;;5056813;28;20013;-75
2022/04/05 05:02:22;;;;;;;4.90;2.30;;;8.60;99.90;;;;;;5057000;28;20107;-74
2022/04/05 05:04:49;;;;;;;6.28;2.10;;;8.70;99.90;;;;;;5057301;28;20025;-74
2022/04/05 05:07:15;;;;;;;6.50;2.97;;;8.70;99.90;;;;;;5057036;28;20040;-74
2022/04/05 05:09:41;;;;;;;6.10;2.75;;;8.70;99.90;;;;;;5039241;28;20033;-75
2022/04/05 05:12:10;;;;;;;7.63;3.47;;;8.90;99.90;;;;;;5056567;28;20017;-73
2022/04/05 05:14:39;;;;;;;8.95;4.13;;;8.90;99.90;;;;;;5058001;28;20025;-72
2022/04/05 05:17:05;;;;;;;;;;;9.00;99.90;;;;;;5057407;28;20390;-73
2022/04/05 05:19:31;;;;;;;10.38;4.22;;;9.00;99.90;;;;;;5057233;28;19912;-73
2022/04/05 05:21:56;;;;;;;12.13;5.40;;;9.10;99.90;;;;;;5057203;28;20359;-73
2022/04/05 05:24:22;;;;;;;9.52;4.22;;;9.10;99.90;;;;;;5038701;28;20025;-74
2022/04/05 05:26:48;;;;;;;10.40;4.47;;;9.10;99.90;;;;;;5057524;28;20035;-74
2022/04/05 05:29:15;;;;;;;7.68;4.00;;;9.20;99.90;;;;;;5039203;28;20033;-73
2022/04/05 05:31:40;;;;;;;16.55;4.45;;;9.20;99.90;;;;;;5056748;28;20029;-73
2022/04/05 05:34:06;;;;;;;12.00;4.78;;;9.30;99.90;;;;;;5057586;28;20024;-73
2022/04/05 05:36:31;;;;;;;10.82;4.55;;;9.30;99.90;;;;;;5056805;28;20024;-73
2022/04/05 05:38:57;;;;;;;11.43;4.78;;;9.40;99.90;;;;;;5057346;28;20018;-73
2022/04/05 05:41:23;;;;;;;11.85;4.53;;;10.10;99.90;;;;;;5057718;28;20025;-74
2022/04/05 05:43:48;;;;;;;9.07;4.10;;;9.30;99.90;;;;;;5057945;28;20035;-74
2022/04/05 05:46:15;;;;;;;12.07;4.03;;;9.30;99.90;;;;;;5057970;28;20467;-74
2022/04/05 05:48:41;;;;;;;10.63;3.72;;;9.40;99.90;;;;;;5057704;28;20393;-74
2022/04/05 05:51:07;;;;;;;14.73;4.47;;;9.80;99.90;;;;;;5039810;28;20028;-74
2022/04/05 05:53:33;;;;;;;15.93;4.22;;;9.40;99.90;;;;;;5038433;28;20017;-74
2022/04/05 05:55:58;;;;;;;15.13;5.05;;;9.40;99.90;;;;;;5056727;28;20036;-74
2022/04/05 05:58:24;;;;;;;18.67;4.53;;;9.80;99.90;;;;;;5056728;28;20036;-74
2022/04/05 06:00:51;;;;;;;11.60;4.25;;;9.40;99.90;;;;;;5038687;28;20551;-75
2022/04/05 06:03:17;;;;;;;10.30;3.88;;;9.50;99.90;;;;;;5056899;28;20474;-74
2022/04/05 06:05:43;;;;;;;8.25;3.00;;;9.50;99.90;;;;;;5056294;28;20017;-74
2022/04/05 06:08:09;;;;;;;10.77;3.10;;;9.50;99.90;;;;;;5038246;28;20116;-74
2022/04/05 06:10:35;;;;;;;9.65;3.45;;;9.50;99.90;;;;;;5056070;28;20393;-74
2022/04/05 06:13:01;;;;;;;15.65;4.03;;;9.60;99.90;;;;;;5037946;28;20021;-75
2022/04/05 06:15:28;;;;;;;14.82;3.60;;;9.60;99.90;;;;;;5056056;28;20025;-75
2022/04/05 06:17:54;;;;;;;8.15;2.70;;;9.60;99.90;;;;;;5055678;28;20024;-75
2022/04/05 06:20:21;;;;;;;11.10;3.10;;;9.60;99.90;;;;;;5055620;28;20024;-75
2022/04/05 06:22:59;;;;;;;7.90;1.95;;;9.60;99.90;;;;;;5055759;28;20024;-74
2022/04/05 06:25:36;;;;;;;8.13;2.88;;;9.60;99.90;;;;;;5038381;28;20029;-75
2022/04/05 06:28:05;;;;;;;8.68;3.22;;;9.70;99.90;;;;;;5056060;28;20025;-73
2022/04/05 06:30:35;;;;;;;6.97;2.13;;;9.70;99.90;;;;;;5037682;28;20032;-73
2022/04/05 06:33:07;;;;;;;10.82;3.20;;;9.70;99.90;;;;;;5055989;28;20021;-73
2022/04/05 06:35:32;;;;;;;9.32;2.10;;;9.80;99.90;;;;;;5055929;28;20025;-73
2022/04/05 06:37:58;;;;;;;6.05;2.67;;;9.80;99.90;;;;;;5055032;28;20020;-74
2022/04/05 06:40:23;;;;;;;8.88;2.20;;;9.80;99.90;;;;;;5055406;28;20052;-74
2022/04/05 06:42:49;;;;;;;4.93;2.08;;;9.80;99.90;;;;;;5039089;28;20029;-74
2022/04/05 06:45:17;;;;;;;8.65;2.05;;;9.80;99.90;;;;;;5037881;28;20049;-74
2022/04/05 06:47:43;;;;;;;12.57;1.77;;;9.90;99.90;;;;;;5038131;28;20021;-73
2022/04/05 06:50:10;;;;;;;7.18;1.95;;;9.90;99.90;;;;;;5037896;28;20036;-74
2022/04/05 06:52:38;;;;;;;5.97;1.63;;;10.00;99.90;;;;;;5055203;28;20021;-74
2022/04/05 06:55:05;;;;;;;10.43;2.33;;;10.00;99.90;;;;;;5055528;28;20021;-73
2022/04/05 06:57:31;;;;;;;7.97;1.67;;;10.00;99.90;;;;;;5054761;28;20017;-74
2022/04/05 06:59:56;;;;;;;7.57;1.38;;;10.00;99.90;;;;;;5054470;28;20417;-74
2022/04/05 07:02:22;;;;;;;7.80;1.70;;;10.10;99.90;;;;;;5036574;28;20021;-74
2022/04/05 07:04:48;;;;;;;7.85;1.27;;;10.10;99.90;;;;;;5055507;28;20550;-73
2022/04/05 07:07:13;;;;;;;8.65;1.80;;;10.00;99.90;;;;;;5055244;28;20041;-73
2022/04/05 07:09:39;;;;;;;8.50;2.08;;;10.30;99.90;;;;;;5054930;28;20055;-74
2022/04/05 07:12:07;;;;;;;7.45;1.73;;;10.00;99.90;;;;;;5055482;28;20028;-74
2022/04/05 07:14:33;;;;;;;14.60;2.72;;;10.00;99.90;;;;;;5054980;28;20037;-74
2022/04/05 07:16:59;;;;;;;5.78;2.33;;;10.00;99.90;;;;;;5054714;28;20025;-74
2022/04/05 07:19:25;;;;;;;8.18;1.90;;;10.00;99.90;;;;;;5055397;28;20394;-74
2022/04/05 07:21:51;;;;;;;12.30;2.50;;;9.90;99.90;;;;;;5036914;28;20477;-74
2022/04/05 07:24:17;;;;;;;9.73;2.25;;;10.00;99.90;;;;;;5054078;28;20033;-74
2022/04/05 07:26:42;;;;;;;10.07;1.55;;;10.00;99.90;;;;;;5036848;28;20505;-74
2022/04/05 07:29:08;;;;;;;8.85;2.15;;;10.00;99.90;;;;;;5055039;28;20043;-74
2022/04/05 07:31:34;;;;;;;10.73;1.88;;;10.10;99.90;;;;;;5055206;28;20104;-74
2022/04/05 07:34:01;;;;;;;4.53;1.13;;;10.10;99.90;;;;;;5035946;28;20112;-74
2022/04/05 07:36:26;;;;;;;12.00;2.60;;;10.20;99.90;;;;;;5053989;28;20013;-74
2022/04/05 07:38:52;;;;;;;8.30;2.67;;;10.20;99.90;;;;;;5054110;28;20428;-73
2022/04/05 07:41:19;;;;;;;7.43;1.95;;;10.20;99.90;;;;;;5036416;28;20017;-74
2022/04/05 07:43:45;;;;;;;5.18;1.05;;;10.30;99.90;;;;;;5054156;28;20513;-73
2022/04/05 07:46:10;;;;;;;11.13;1.85;;;10.30;99.90;;;;;;5054886;28;20021;-74
2022/04/05 07:48:36;;;;;;;4.68;1.30;;;10.30;99.90;;;;;;5036157;28;20017;-74
2022/04/05 07:51:02;;;;;;;5.35;1.05;;;10.30;99.90;;;;;;5036158;28;20075;-74
2022/04/05 07:53:27;;;;;;;5.63;0.85;;;10.30;99.90;;;;;;5036411;28;20071;-74
2022/04/05 07:55:54;;;;;;;8.45;1.38;;;10.30;99.90;;;;;;5053713;28;20021;-74
2022/04/05 07:58:20;;;;;;;9.75;1.88;;;10.50;99.90;;;;;;5054339;28;20022;-75
2022/04/05 08:00:46;;;;;;;3.08;0.68;;;10.60;99.90;;;;;;5053842;28;20022;-74
2022/04/05 08:03:12;;;;;;;12.15;0.95;;;10.70;99.90;;;;;;5054087;28;20096;-75
2022/04/05 08:05:40;;;;;;;5.07;1.33;;;10.80;99.90;;;;;;5036503;28;20484;-75
2022/04/05 08:08:08;;;;;;;9.07;1.25;;;10.90;99.90;;;;;;5053361;28;20037;-75
2022/04/05 08:10:35;;;;;;;12.80;2.00;;;11.10;99.90;;;;;;5035129;28;20390;-75
2022/04/05 08:13:00;;;;;;;8.27;2.13;;;11.10;99.90;;;;;;5053649;28;20075;-75
2022/04/05 08:15:26;;;;;;;5.55;1.17;;;11.20;99.90;;;;;;5036321;28;20466;-75
2022/04/05 08:17:52;;;;;;;7.22;1.95;;;11.20;99.90;;;;;;5053880;28;20025;-75
2022/04/05 08:20:19;;;;;;;5.80;0.68;;;11.30;99.90;;;;;;5054228;28;20025;-75
2022/04/05 08:22:46;;;;;;;2.60;0.52;;;11.40;99.90;;;;;;5053856;28;20368;-74
2022/04/05 08:25:16;;;;;;;5.78;0.63;;;11.40;99.90;;;;;;5053412;28;20087;-74
2022/04/05 08:27:43;;;;;;;4.80;0.45;;;11.40;99.90;;;;;;5035532;28;20028;-74
2022/04/05 08:30:12;;;;;;;7.75;0.70;;;11.40;99.90;;;;;;5053446;28;20021;-75
2022/04/05 08:32:42;;;;;;;4.25;0.90;;;11.30;99.90;;;;;;5052986;28;20386;-75
2022/04/05 08:35:08;;;;;;;4.57;0.38;;;11.40;99.90;;;;;;5035109;28;20071;-75
2022/04/05 08:37:34;;;;;;;3.65;0.50;;;11.40;99.90;;;;;;5035159;28;20029;-75
2022/04/05 08:40:00;;;;;;;3.47;0.90;;;11.50;99.90;;;;;;5052423;28;20045;-76
2022/04/05 08:42:25;;;;;;;3.47;1.02;;;11.50;99.90;;;;;;5052705;28;20414;-75
2022/04/05 08:44:51;;;;;;;3.55;0.85;;;11.50;99.90;;;;;;5053288;28;20037;-75
2022/04/05 08:47:21;;;;;;;5.90;0.68;;;11.50;99.90;;;;;;5056659;28;20044;-75
2022/04/05 08:49:49;;;;;;;3.92;0.70;;;11.50;99.90;;;;;;5056298;28;20056;-75
2022/04/05 08:52:15;;;;;;;5.97;0.70;;;11.40;99.90;;;;;;5056668;28;20385;-75
2022/04/05 08:54:40;;;;;;;3.83;0.73;;;11.40;99.90;;;;;;5057365;28;20024;-75
2022/04/05 08:57:06;;;;;;;7.25;1.73;;;11.40;99.90;;;;;;5057366;28;20452;-75
2022/04/05 08:59:32;;;;;;;5.93;1.83;;;11.30;99.90;;;;;;5057188;28;20029;-75
2022/04/05 09:01:58;;;;;;;7.18;1.38;;;11.20;99.90;;;;;;5056717;28;20462;-75
2022/04/05 09:04:23;;;;;;;3.60;1.10;;;11.20;99.90;;;;;;5038690;28;20052;-75
2022/04/05 09:06:49;;;;;;;4.90;1.25;;;11.20;99.90;;;;;;5057190;28;20375;-75
2022/04/05 09:09:17;;;;;;;4.88;1.08;;;11.20;99.90;;;;;;5056568;28;20390;-75
2022/04/05 09:11:50;;;;;;;8.82;1.10;;;11.70;99.90;;;;;;5056701;28;20036;-74
2022/04/05 09:14:27;;;;;;;9.05;1.23;;;11.10;99.90;;;;;;5056602;28;20496;-74
2022/04/05 09:17:10;;;;;;;4.68;1.17;;;11.10;99.90;;;;;;5038502;28;20108;-75
2022/04/05 09:19:37;;;;;;;5.85;1.55;;;11.10;99.90;;;;;;5038748;28;20029;-75
2022/04/05 09:22:03;;;;;;;5.00;1.13;;;11.00;99.90;;;;;;5057015;28;20025;-73
2022/04/05 09:24:36;;;;;;;8.43;1.30;;;11.00;99.90;;;;;;5038508;28;20115;-74
2022/04/05 09:27:03;;;;;;;2.90;1.10;;;11.00;99.90;;;;;;5056680;28;20021;-75
2022/04/05 09:29:42;;;;;;;3.47;1.27;;;11.00;99.90;;;;;;5056087;28;20112;-74
2022/04/05 09:32:08;;;;;;;5.57;1.27;;;11.00;99.90;;;;;;5037893;28;20439;-74
2022/04/05 09:34:48;;;;;;;8.85;1.73;;;11.10;99.90;;;;;;5037881;28;20025;-74
2022/04/05 09:37:14;;;;;;;5.25;1.27;;;11.10;99.90;;;;;;5056286;28;20021;-75
2022/04/05 09:39:41;;;;;;;6.90;1.30;;;11.10;99.90;;;;;;5055703;28;20091;-75
2022/04/05 09:42:09;;;;;;;5.68;1.40;;;11.10;99.90;;;;;;5055513;28;20043;-74
2022/04/05 09:44:40;;;;;;;9.88;1.40;;;11.10;99.90;;;;;;5055875;28;20027;-74
2022/04/05 09:47:09;;;;;;;3.85;1.13;;;11.20;99.90;;;;;;5037644;28;20139;-74
2022/04/05 09:49:40;;;;;;;4.30;1.20;;;11.20;99.90;;;;;;5055279;28;20021;-74
2022/04/05 09:52:25;;;;;;;2.08;0.60;;;11.40;99.90;;;;;;5055616;28;20025;-74
2022/04/05 09:54:52;;;;;;;3.40;0.90;;;11.50;99.90;;;;;;5055971;28;20025;-74
2022/04/05 09:57:29;;;;;;;7.50;1.20;;;11.60;99.90;;;;;;5055216;28;20021;-74
2022/04/05 10:00:15;;;;;;;1.88;0.80;;;11.70;99.90;;;;;;5056300;28;20039;-74
2022/04/05 10:03:19;;;;;;;1.27;0.20;;;11.70;99.90;;;;;;5055902;28;20551;-75
2022/04/05 10:05:54;;;;;;;4.55;1.52;;;11.70;99.90;;;;;;4975449;28;20030;-74
2022/04/05 10:08:20;;;;;;;3.90;0.77;;;11.80;99.90;;;;;;4958819;28;20050;-74
2022/04/05 10:10:45;;;;;;;4.25;0.95;;;11.80;99.90;;;;;;5000152;28;20044;-73
2022/04/05 10:13:11;;;;;;;6.18;0.77;;;11.80;99.90;;;;;;5055179;28;20551;-75
2022/04/05 10:15:37;;;;;;;5.80;0.98;;;11.80;99.90;;;;;;5037175;28;20028;-73
2022/04/05 10:18:06;;;;;;;5.38;1.10;;;11.80;99.90;;;;;;5055184;28;20017;-73
2022/04/05 10:20:33;;;;;;;4.70;0.50;;;11.80;99.90;;;;;;5055049;28;20040;-75
2022/04/05 10:23:02;;;;;;;4.22;0.85;;;11.70;99.90;;;;;;5055324;28;20418;-75
2022/04/05 10:25:29;;;;;;;;;;;11.60;99.90;;;;;;5037714;28;20021;-74
2022/04/05 10:27:54;;;;;;;5.28;0.73;;;11.60;99.90;;;;;;5055038;28;19909;-74
2022/04/05 10:30:35;;;;;;;5.13;0.80;;;11.60;99.90;;;;;;5054915;28;20024;-74
2022/04/05 10:33:12;;;;;;;7.50;0.70;;;11.60;99.90;;;;;;5055331;28;20017;-75
2022/04/05 10:35:50;;;;;;;3.72;1.02;;;11.50;99.90;;;;;;5037177;28;20051;-73
2022/04/05 10:38:18;;;;;;;4.60;1.43;;;11.50;99.90;;;;;;5056280;28;20096;-74
2022/04/05 10:41:23;;;;;;;2.75;0.52;;;11.60;99.90;;;;;;5036500;28;20063;-75
2022/04/05 10:44:18;;;;;;;6.15;0.60;;;11.60;99.90;;;;;;5037581;28;20437;-74
2022/04/05 10:46:53;;;;;;;4.68;0.90;;;11.70;99.90;;;;;;5055093;28;20104;-75
2022/04/05 10:49:35;;;;;;;2.88;0.40;;;11.90;99.90;;;;;;5055108;28;20025;-74
2022/04/05 10:52:12;;;;;;;3.67;0.43;;;12.00;99.90;;;;;;5055146;28;20490;-75
2022/04/05 10:54:47;;;;;;;4.00;0.47;;;12.10;99.90;;;;;;5054926;28;20032;-75
2022/04/05 10:57:37;;;;;;;9.93;1.15;;;12.20;99.90;;;;;;5055189;28;20021;-75
2022/04/05 11:00:12;;;;;;;1.17;0.40;;;12.40;99.90;;;;;;5054349;28;20017;-75
2022/04/05 11:02:46;;;;;;;4.22;0.40;;;12.50;99.90;;;;;;5036886;28;20028;-75
2022/04/05 11:05:14;;;;;;;5.43;1.20;;;12.60;99.90;;;;;;5036912;28;20025;-75
2022/04/05 11:07:58;;;;;;;2.63;0.60;;;12.60;99.90;;;;;;5036714;28;20036;-75
2022/04/05 11:10:29;;;;;;;8.90;0.55;;;12.70;99.90;;;;;;5036568;28;20045;-75
2022/04/05 11:13:06;;;;;;;4.25;0.43;;;12.60;99.90;;;;;;5054389;28;20025;-74
2022/04/05 11:15:42;;;;;;;0.63;0.13;;;12.70;99.90;;;;;;5036947;28;20063;-74
2022/04/05 11:18:22;;;;;;;2.80;0.40;;;12.70;99.90;;;;;;5037069;28;20021;-74
2022/04/05 11:20:51;;;;;;;3.63;0.50;;;12.70;99.90;;;;;;5036723;28;20052;-75
2022/04/05 11:23:18;;;;;;;;;;;12.60;99.90;;;;;;5055895;28;20041;-74
2022/04/05 11:25:48;;;;;;;3.33;0.35;;;12.60;99.90;;;;;;5037267;28;19905;-74
2022/04/05 11:28:21;;;;;;;1.52;0.40;;;12.50;99.90;;;;;;5054855;28;20017;-74
2022/04/05 11:31:00;;;;;;;8.02;0.43;;;12.50;99.90;;;;;;5055120;28;20048;-74
2022/04/05 11:33:31;;;;;;;4.00;0.70;;;12.40;99.90;;;;;;5056240;28;20084;-74
2022/04/05 11:36:09;;;;;;;3.40;0.52;;;12.40;99.90;;;;;;5036948;28;20422;-74
2022/04/05 11:38:39;;;;;;;4.60;0.70;;;12.30;99.90;;;;;;5055141;28;20024;-74
2022/04/05 11:41:18;;;;;;;2.33;0.77;;;12.30;99.90;;;;;;5054718;28;20064;-74
2022/04/05 11:43:47;;;;;;;3.20;0.95;;;12.30;99.90;;;;;;5054885;28;20049;-74
2022/04/05 11:46:15;;;;;;;7.23;1.30;;;12.20;99.90;;;;;;5054888;28;20029;-74
2022/04/05 11:48:43;;;;;;;5.32;0.93;;;12.20;99.90;;;;;;5054888;28;20356;-74
2022/04/05 11:51:11;;;;;;;5.28;0.90;;;12.20;99.90;;;;;;5036392;28;20043;-75
2022/04/05 11:53:38;;;;;;;5.43;0.90;;;12.20;99.90;;;;;;5054592;28;20025;-74
2022/04/05 11:56:08;;;;;;;4.82;1.02;;;12.20;99.90;;;;;;5053576;28;20044;-73
2022/04/05 11:58:36;;;;;;;2.97;1.17;;;12.20;99.90;;;;;;5035729;28;20464;-74
2022/04/05 12:01:04;;;;;;;4.20;0.82;;;12.10;99.90;;;;;;5054241;28;20014;-73
2022/04/05 12:03:51;;;;;;;3.47;0.83;;;12.10;99.90;;;;;;5053944;28;20052;-73
2022/04/05 12:06:23;;;;;;;4.75;1.25;;;12.00;99.90;;;;;;5054589;28;20029;-73
2022/04/05 12:08:52;;;;;;;4.75;0.95;;;11.80;99.90;;;;;;5053803;28;20032;-73
2022/04/05 12:11:24;;;;;;;3.63;1.17;;;12.20;99.90;;;;;;5054215;28;20040;-74
2022/04/05 12:14:11;;;;;;;1.92;1.10;;;12.40;99.90;;;;;;5054163;28;20029;-74
2022/04/05 12:16:56;;;;;;;4.43;1.17;;;12.50;99.90;;;;;;5037089;28;20021;-73
2022/04/05 12:19:37;;;;;;;10.63;1.35;;;12.50;99.90;;;;;;5054492;28;20025;-74
2022/04/05 12:22:05;;;;;;;2.65;1.05;;;12.50;99.90;;;;;;5058890;28;20470;-73
2022/04/05 12:24:32;;;;;;;5.50;1.48;;;12.60;99.90;;;;;;5058621;28;20516;-73
2022/04/05 12:26:59;;;;;;;4.55;0.77;;;12.60;99.90;;;;;;5040191;28;20486;-73
2022/04/05 12:29:26;;;;;;;5.70;0.77;;;12.50;99.90;;;;;;5057892;28;20079;-75
2022/04/05 12:31:53;;;;;;;4.40;1.27;;;12.50;99.90;;;;;;5039762;28;20021;-75
2022/04/05 12:34:19;;;;;;;4.38;0.85;;;12.40;99.90;;;;;;5057983;28;20511;-75
2022/04/05 12:36:47;;;;;;;3.92;1.23;;;12.50;99.90;;;;;;5058124;28;20461;-75
2022/04/05 12:39:21;;;;;;;3.53;1.13;;;12.50;99.90;;;;;;5057943;28;20025;-72
2022/04/05 12:42:03;;;;;;;9.52;1.95;;;12.50;99.90;;;;;;5057986;28;20028;-73
2022/04/05 12:44:37;;;;;;;3.22;1.08;;;12.50;99.90;;;;;;5039982;28;20466;-73
2022/04/05 12:47:06;;;;;;;2.95;0.95;;;12.60;99.90;;;;;;5039595;28;20032;-73
2022/04/05 12:49:34;;;;;;;;;;;12.90;99.90;;;;;;5040223;28;20032;-73
2022/04/05 12:52:09;;;;;;;4.55;1.40;;;12.90;99.90;;;;;;5039693;28;19909;-73
2022/04/05 12:54:36;;;;;;;4.18;1.33;;;12.90;99.90;;;;;;5057326;28;20044;-74
2022/04/05 12:57:19;;;;;;;7.85;1.83;;;12.80;99.90;;;;;;5057171;28;20013;-73
2022/04/05 12:59:47;;;;;;;11.07;2.08;;;12.70;99.90;;;;;;5057541;28;20154;-73